Thunder radar more information blitzortung!


Radar de pluja more information rain snow radar


Visita la nostra xarxa de llocs de meteo:

Template documentation
and downloads

And another site



No particular awareness of the weather is required.    There are no Weather-warnings

Pagina Historial Weather Underground text

Diari Resum May 12, 2017 Unitats:  Tant    Imperial   Mètric
« Previous Dia
SegĂźent Dia »
Diari Setmana Mensual Anual Personalitzada
  Maxima: Minima: Media:
Temperatura: 77.7 °F /  25.4 °C 54 °F /  12.2 °C 68.4 °F /  20.2 °C
Punt de rosada: 55.2 °F /  12.9 °C 43.5 °F /  6.4 °C 49.1 °F /  9.5 °C
Humitat: 84 % 32 % 52 %
Wind Speed: 15 mph /  24.1 km/h - 5.4 mph /  8.7 km/h
RĂ fegues de vent: 15 mph /  24.1 km/h - -
Vent:- - WSW
Pression baro: 29.9 in /  1011.7 hPa 29.6 in /  1002.9 hPa -
Precipitacions: 0 in /  0.0 mm    
Historical Graphs
 
 
Dades de taula per May 12, 2017
Temps Temperatura Punt de rosada Pression baro Vent Wind Speed RĂ fegues de vent Humitat Rainfall Rate (Hourly)
00:01 60.4 °F /  15.8 °C 54.9 °F /  12.7 °C 29.6 in /  1002.9 hPa WSW 1.4 mph /  2.3 km/h 1.4 mph /  2.3 km/h 82 % 0 in /  0.0 mm
00:05 54.3 °F /  12.4 °C 49.6 °F /  9.8 °C 29.6 in /  1003.9 hPa WSW 1 mph /  1.6 km/h 2 mph /  3.2 km/h 84 % 0 in /  0.0 mm
00:06 60.6 °F /  15.9 °C 55 °F /  12.8 °C 29.6 in /  1002.9 hPa WSW 2.3 mph /  3.7 km/h 2.4 mph /  3.9 km/h 82 % 0 in /  0.0 mm
00:11 60.6 °F /  15.9 °C 55 °F /  12.8 °C 29.6 in /  1003.9 hPa WSW 3.5 mph /  5.6 km/h 3.5 mph /  5.6 km/h 82 % 0 in /  0.0 mm
00:15 55.2 °F /  12.9 °C 50.2 °F /  10.1 °C 29.6 in /  1003.9 hPa West 1 mph /  1.6 km/h 3 mph /  4.8 km/h 83 % 0 in /  0.0 mm
00:25 55.2 °F /  12.9 °C 49.8 °F /  9.9 °C 29.6 in /  1003.9 hPa West 1 mph /  1.6 km/h 2 mph /  3.2 km/h 82 % 0 in /  0.0 mm
00:35 56.1 °F /  13.4 °C 50.4 °F /  10.2 °C 29.6 in /  1003.9 hPa West 1 mph /  1.6 km/h 2 mph /  3.2 km/h 81 % 0 in /  0.0 mm
00:45 56.8 °F /  13.8 °C 50.4 °F /  10.2 °C 29.6 in /  1003.9 hPa West 1 mph /  1.6 km/h 2 mph /  3.2 km/h 79 % 0 in /  0.0 mm
00:55 57.7 °F /  14.3 °C 50.5 °F /  10.3 °C 29.6 in /  1003.9 hPa West 2 mph /  3.2 km/h 4 mph /  6.4 km/h 77 % 0 in /  0.0 mm
01:05 57.7 °F /  14.3 °C 50.2 °F /  10.1 °C 29.6 in /  1003.9 hPa WSW 2 mph /  3.2 km/h 4 mph /  6.4 km/h 76 % 0 in /  0.0 mm
01:15 57 °F /  13.9 °C 49.3 °F /  9.6 °C 29.6 in /  1003.9 hPa WSW 1 mph /  1.6 km/h 1 mph /  1.6 km/h 75 % 0 in /  0.0 mm
01:25 56.5 °F /  13.6 °C 48.6 °F /  9.2 °C 29.6 in /  1003.9 hPa Calm   1 mph /  1.6 km/h 75 % 0 in /  0.0 mm
01:35 55.8 °F /  13.2 °C 48.4 °F /  9.1 °C 29.6 in /  1003.9 hPa Calm   1 mph /  1.6 km/h 76 % 0 in /  0.0 mm
01:45 54.5 °F /  12.5 °C 47.8 °F /  8.8 °C 29.6 in /  1003.9 hPa NE 2 mph /  3.2 km/h 3 mph /  4.8 km/h 78 % 0 in /  0.0 mm
01:55 54.1 °F /  12.3 °C 47.5 °F /  8.6 °C 29.6 in /  1003.9 hPa NE 1 mph /  1.6 km/h 2 mph /  3.2 km/h 78 % 0 in /  0.0 mm
02:05 54 °F /  12.2 °C 47.7 °F /  8.7 °C 29.6 in /  1003.9 hPa Calm   1 mph /  1.6 km/h 79 % 0 in /  0.0 mm
02:15 54.9 °F /  12.7 °C 48.7 °F /  9.3 °C 29.6 in /  1003.9 hPa West 1 mph /  1.6 km/h 2 mph /  3.2 km/h 80 % 0 in /  0.0 mm
02:25 55.9 °F /  13.3 °C 49.5 °F /  9.7 °C 29.6 in /  1003.9 hPa North 1 mph /  1.6 km/h 2 mph /  3.2 km/h 79 % 0 in /  0.0 mm
02:35 56.5 °F /  13.6 °C 49.6 °F /  9.8 °C 29.6 in /  1003.9 hPa NE 1 mph /  1.6 km/h 2 mph /  3.2 km/h 78 % 0 in /  0.0 mm
02:45 57 °F /  13.9 °C 50.2 °F /  10.1 °C 29.6 in /  1003.9 hPa East 2 mph /  3.2 km/h 2 mph /  3.2 km/h 78 % 0 in /  0.0 mm
02:55 57.7 °F /  14.3 °C 50.5 °F /  10.3 °C 29.6 in /  1003.9 hPa NE 1 mph /  1.6 km/h 2 mph /  3.2 km/h 77 % 0 in /  0.0 mm
03:05 57.6 °F /  14.2 °C 50.4 °F /  10.2 °C 29.6 in /  1003.9 hPa WSW 1 mph /  1.6 km/h 2 mph /  3.2 km/h 77 % 0 in /  0.0 mm
03:15 58.3 °F /  14.6 °C 51.1 °F /  10.6 °C 29.6 in /  1003.9 hPa SW 1 mph /  1.6 km/h 2 mph /  3.2 km/h 77 % 0 in /  0.0 mm
03:25 59.9 °F /  15.5 °C 52.3 °F /  11.3 °C 29.6 in /  1003.9 hPa SSE 1 mph /  1.6 km/h 3 mph /  4.8 km/h 76 % 0 in /  0.0 mm
03:35 60.4 °F /  15.8 °C 52.5 °F /  11.4 °C 29.7 in /  1005.0 hPa Calm   2 mph /  3.2 km/h 75 % 0 in /  0.0 mm
03:45 61.7 °F /  16.5 °C 53.1 °F /  11.7 °C 29.7 in /  1005.0 hPa ENE 1 mph /  1.6 km/h 3 mph /  4.8 km/h 73 % 0 in /  0.0 mm
03:55 63.1 °F /  17.3 °C 53.6 °F /  12.0 °C 29.7 in /  1005.0 hPa NNE 1 mph /  1.6 km/h 2 mph /  3.2 km/h 71 % 0 in /  0.0 mm
04:05 64 °F /  17.8 °C 53.8 °F /  12.1 °C 29.7 in /  1005.0 hPa North 1 mph /  1.6 km/h 1 mph /  1.6 km/h 69 % 0 in /  0.0 mm
04:15 64.6 °F /  18.1 °C 53.4 °F /  11.9 °C 29.7 in /  1005.0 hPa North 1 mph /  1.6 km/h 2 mph /  3.2 km/h 67 % 0 in /  0.0 mm
04:25 65.3 °F /  18.5 °C 54.1 °F /  12.3 °C 29.7 in /  1005.0 hPa NE 2 mph /  3.2 km/h 2 mph /  3.2 km/h 67 % 0 in /  0.0 mm
04:35 66 °F /  18.9 °C 55.2 °F /  12.9 °C 29.7 in /  1005.0 hPa ENE 1 mph /  1.6 km/h 3 mph /  4.8 km/h 68 % 0 in /  0.0 mm
04:45 66.4 °F /  19.1 °C 54.3 °F /  12.4 °C 29.7 in /  1005.0 hPa WSW 3 mph /  4.8 km/h 3 mph /  4.8 km/h 65 % 0 in /  0.0 mm
04:55 66.7 °F /  19.3 °C 53.8 °F /  12.1 °C 29.7 in /  1006.0 hPa WSW 2 mph /  3.2 km/h 8 mph /  12.9 km/h 63 % 0 in /  0.0 mm
05:05 66.7 °F /  19.3 °C 52.9 °F /  11.6 °C 29.7 in /  1005.0 hPa WSW 5 mph /  8.0 km/h 5 mph /  8.0 km/h 61 % 0 in /  0.0 mm
05:15 67.1 °F /  19.5 °C 52.3 °F /  11.3 °C 29.7 in /  1005.0 hPa West 3 mph /  4.8 km/h 7 mph /  11.3 km/h 59 % 0 in /  0.0 mm
05:25 67.1 °F /  19.5 °C 50.9 °F /  10.5 °C 29.7 in /  1006.0 hPa West 7 mph /  11.3 km/h 7 mph /  11.3 km/h 56 % 0 in /  0.0 mm
10:29 67.1 °F /  19.5 °C 49.8 °F /  9.9 °C 29.7 in /  1006.0 hPa NNW 7.6 mph /  12.2 km/h 7.6 mph /  12.2 km/h 54 % 0 in /  0.0 mm
10:34 67.5 °F /  19.7 °C 49.6 °F /  9.8 °C 29.7 in /  1006.0 hPa NW 6.9 mph /  11.1 km/h 6.9 mph /  11.1 km/h 53 % 0 in /  0.0 mm
10:39 67.8 °F /  19.9 °C 50.2 °F /  10.1 °C 29.7 in /  1006.0 hPa West 6.2 mph /  10.0 km/h 6.2 mph /  10.0 km/h 53 % 0 in /  0.0 mm
10:44 68.4 °F /  20.2 °C 51.1 °F /  10.6 °C 29.7 in /  1006.0 hPa WNW 3.5 mph /  5.6 km/h 3.5 mph /  5.6 km/h 54 % 0 in /  0.0 mm
10:49 68.7 °F /  20.4 °C 50.9 °F /  10.5 °C 29.7 in /  1006.0 hPa SSE 4.6 mph /  7.4 km/h 4.6 mph /  7.4 km/h 53 % 0 in /  0.0 mm
10:54 69.1 °F /  20.6 °C 51.3 °F /  10.7 °C 29.7 in /  1006.0 hPa NW 4.6 mph /  7.4 km/h 4.6 mph /  7.4 km/h 53 % 0 in /  0.0 mm
10:59 69.1 °F /  20.6 °C 51.3 °F /  10.7 °C 29.7 in /  1006.0 hPa WSW 9.2 mph /  14.8 km/h 9.2 mph /  14.8 km/h 53 % 0 in /  0.0 mm
11:04 69.1 °F /  20.6 °C 50.7 °F /  10.4 °C 29.7 in /  1006.0 hPa West 9.2 mph /  14.8 km/h 9.2 mph /  14.8 km/h 52 % 0 in /  0.0 mm
11:09 69.8 °F /  21.0 °C 51.4 °F /  10.8 °C 29.7 in /  1006.0 hPa SW 5.6 mph /  9.0 km/h 5.6 mph /  9.0 km/h 52 % 0 in /  0.0 mm
11:14 68.9 °F /  20.5 °C 50 °F /  10.0 °C 29.7 in /  1006.0 hPa WNW 8.1 mph /  13.0 km/h 8.1 mph /  13.0 km/h 51 % 0 in /  0.0 mm
11:19 69.3 °F /  20.7 °C 50.4 °F /  10.2 °C 29.7 in /  1006.0 hPa SW 6.9 mph /  11.1 km/h 6.9 mph /  11.1 km/h 51 % 0 in /  0.0 mm
11:24 69.6 °F /  20.9 °C 51.3 °F /  10.7 °C 29.7 in /  1006.0 hPa WSW 4.6 mph /  7.4 km/h 4.6 mph /  7.4 km/h 52 % 0 in /  0.0 mm
11:29 69.6 °F /  20.9 °C 50.7 °F /  10.4 °C 29.7 in /  1006.0 hPa NW 8.1 mph /  13.0 km/h 8.1 mph /  13.0 km/h 51 % 0 in /  0.0 mm
11:34 69.4 °F /  20.8 °C 50.5 °F /  10.3 °C 29.7 in /  1006.0 hPa South 5.9 mph /  9.5 km/h 5.9 mph /  9.5 km/h 51 % 0 in /  0.0 mm
11:39 69.6 °F /  20.9 °C 50.2 °F /  10.1 °C 29.7 in /  1006.0 hPa West 5.8 mph /  9.3 km/h 5.8 mph /  9.3 km/h 50 % 0 in /  0.0 mm
11:44 70.3 °F /  21.3 °C 50.7 °F /  10.4 °C 29.7 in /  1006.0 hPa SW 8.1 mph /  13.0 km/h 8.1 mph /  13.0 km/h 50 % 0 in /  0.0 mm
11:50 70.9 °F /  21.6 °C 51.8 °F /  11.0 °C 29.7 in /  1006.0 hPa WSW 6.2 mph /  10.0 km/h 6.2 mph /  10.0 km/h 51 % 0 in /  0.0 mm
11:54 70.9 °F /  21.6 °C 50.7 °F /  10.4 °C 29.7 in /  1006.0 hPa WSW 8.1 mph /  13.0 km/h 8.1 mph /  13.0 km/h 49 % 0 in /  0.0 mm
11:59 71.4 °F /  21.9 °C 51.3 °F /  10.7 °C 29.7 in /  1006.0 hPa West 10.5 mph /  16.9 km/h 10.5 mph /  16.9 km/h 49 % 0 in /  0.0 mm
12:05 71.4 °F /  21.9 °C 51.3 °F /  10.7 °C 29.7 in /  1006.0 hPa SW 5.6 mph /  9.0 km/h 5.6 mph /  9.0 km/h 49 % 0 in /  0.0 mm
12:09 72 °F /  22.2 °C 51.8 °F /  11.0 °C 29.7 in /  1006.0 hPa SW 6.9 mph /  11.1 km/h 6.9 mph /  11.1 km/h 49 % 0 in /  0.0 mm
12:14 72.3 °F /  22.4 °C 52.2 °F /  11.2 °C 29.7 in /  1006.0 hPa WSW 6 mph /  9.7 km/h 6 mph /  9.7 km/h 49 % 0 in /  0.0 mm
12:19 72.9 °F /  22.7 °C 52.5 °F /  11.4 °C 29.7 in /  1006.0 hPa WNW 5.8 mph /  9.3 km/h 5.8 mph /  9.3 km/h 49 % 0 in /  0.0 mm
12:24 73.4 °F /  23.0 °C 52.5 °F /  11.4 °C 29.7 in /  1006.0 hPa SW 4.6 mph /  7.4 km/h 4.6 mph /  7.4 km/h 48 % 0 in /  0.0 mm
12:29 73.4 °F /  23.0 °C 52 °F /  11.1 °C 29.7 in /  1006.0 hPa SW 6.4 mph /  10.3 km/h 6.4 mph /  10.3 km/h 47 % 0 in /  0.0 mm
12:34 73.2 °F /  22.9 °C 51.8 °F /  11.0 °C 29.7 in /  1006.0 hPa West 5.8 mph /  9.3 km/h 5.8 mph /  9.3 km/h 47 % 0 in /  0.0 mm
12:39 73.6 °F /  23.1 °C 51.4 °F /  10.8 °C 29.7 in /  1006.0 hPa NW 8.1 mph /  13.0 km/h 8.1 mph /  13.0 km/h 46 % 0 in /  0.0 mm
12:45 73.4 °F /  23.0 °C 51.4 °F /  10.8 °C 29.7 in /  1006.0 hPa WSW 4.6 mph /  7.4 km/h 4.6 mph /  7.4 km/h 46 % 0 in /  0.0 mm
12:49 73.8 °F /  23.2 °C 51.1 °F /  10.6 °C 29.7 in /  1006.0 hPa West 5.8 mph /  9.3 km/h 5.8 mph /  9.3 km/h 45 % 0 in /  0.0 mm
12:54 73 °F /  22.8 °C 49.8 °F /  9.9 °C 29.7 in /  1006.0 hPa WSW 10.4 mph /  16.7 km/h 10.4 mph /  16.7 km/h 44 % 0 in /  0.0 mm
12:59 73.9 °F /  23.3 °C 50.5 °F /  10.3 °C 29.7 in /  1006.0 hPa WSW 9.2 mph /  14.8 km/h 9.2 mph /  14.8 km/h 44 % 0 in /  0.0 mm
13:04 74.3 °F /  23.5 °C 51.1 °F /  10.6 °C 29.7 in /  1006.0 hPa WSW 5.8 mph /  9.3 km/h 5.8 mph /  9.3 km/h 44 % 0 in /  0.0 mm
13:09 74.5 °F /  23.6 °C 51.1 °F /  10.6 °C 29.7 in /  1005.0 hPa WSW 4.6 mph /  7.4 km/h 4.6 mph /  7.4 km/h 44 % 0 in /  0.0 mm
13:15 74.7 °F /  23.7 °C 51.3 °F /  10.7 °C 29.7 in /  1005.0 hPa West 6.9 mph /  11.1 km/h 6.9 mph /  11.1 km/h 44 % 0 in /  0.0 mm
13:19 74.8 °F /  23.8 °C 50.7 °F /  10.4 °C 29.7 in /  1005.0 hPa WSW 6.9 mph /  11.1 km/h 6.9 mph /  11.1 km/h 43 % 0 in /  0.0 mm
13:24 74.5 °F /  23.6 °C 50.5 °F /  10.3 °C 29.7 in /  1005.0 hPa WSW 4.6 mph /  7.4 km/h 4.6 mph /  7.4 km/h 43 % 0 in /  0.0 mm
13:29 74.5 °F /  23.6 °C 49.8 °F /  9.9 °C 29.7 in /  1005.0 hPa WSW 8.1 mph /  13.0 km/h 8.1 mph /  13.0 km/h 42 % 0 in /  0.0 mm
13:34 74.7 °F /  23.7 °C 50 °F /  10.0 °C 29.7 in /  1005.0 hPa WNW 8.1 mph /  13.0 km/h 8.1 mph /  13.0 km/h 42 % 0 in /  0.0 mm
13:39 75.6 °F /  24.2 °C 50.9 °F /  10.5 °C 29.7 in /  1006.0 hPa West 5.8 mph /  9.3 km/h 5.8 mph /  9.3 km/h 42 % 0 in /  0.0 mm
13:44 75 °F /  23.9 °C 49.6 °F /  9.8 °C 29.7 in /  1006.0 hPa WNW 4.6 mph /  7.4 km/h 4.6 mph /  7.4 km/h 41 % 0 in /  0.0 mm
13:49 75.2 °F /  24.0 °C 49.8 °F /  9.9 °C 29.7 in /  1006.0 hPa WSW 5.8 mph /  9.3 km/h 5.8 mph /  9.3 km/h 41 % 0 in /  0.0 mm
13:54 76.1 °F /  24.5 °C 51.3 °F /  10.7 °C 29.7 in /  1005.0 hPa WSW 4.6 mph /  7.4 km/h 4.6 mph /  7.4 km/h 42 % 0 in /  0.0 mm
13:59 75.7 °F /  24.3 °C 50.4 °F /  10.2 °C 29.7 in /  1005.0 hPa WSW 12.7 mph /  20.4 km/h 12.7 mph /  20.4 km/h 41 % 0 in /  0.0 mm
14:04 75.4 °F /  24.1 °C 49.5 °F /  9.7 °C 29.7 in /  1005.0 hPa WSW 5.8 mph /  9.3 km/h 5.8 mph /  9.3 km/h 40 % 0 in /  0.0 mm
14:10 75.6 °F /  24.2 °C 49.5 °F /  9.7 °C 29.7 in /  1006.0 hPa WNW 3.6 mph /  5.8 km/h 3.6 mph /  5.8 km/h 40 % 0 in /  0.0 mm
14:14 75.6 °F /  24.2 °C 48.9 °F /  9.4 °C 29.7 in /  1006.0 hPa NW 8.1 mph /  13.0 km/h 8.1 mph /  13.0 km/h 39 % 0 in /  0.0 mm
14:20 75.4 °F /  24.1 °C 48.7 °F /  9.3 °C 29.7 in /  1006.0 hPa NNW 6.9 mph /  11.1 km/h 6.9 mph /  11.1 km/h 39 % 0 in /  0.0 mm
14:24 75.7 °F /  24.3 °C 48.9 °F /  9.4 °C 29.7 in /  1006.0 hPa WNW 3.5 mph /  5.6 km/h 3.5 mph /  5.6 km/h 39 % 0 in /  0.0 mm
14:30 75.9 °F /  24.4 °C 49.3 °F /  9.6 °C 29.7 in /  1006.0 hPa SW 5.8 mph /  9.3 km/h 5.8 mph /  9.3 km/h 39 % 0 in /  0.0 mm
14:35 75.7 °F /  24.3 °C 48.9 °F /  9.4 °C 29.7 in /  1006.0 hPa West 8.1 mph /  13.0 km/h 8.1 mph /  13.0 km/h 39 % 0 in /  0.0 mm
14:40 75.6 °F /  24.2 °C 48.9 °F /  9.4 °C 29.7 in /  1006.0 hPa SSW 6.9 mph /  11.1 km/h 6.9 mph /  11.1 km/h 39 % 0 in /  0.0 mm
14:45 75.6 °F /  24.2 °C 48.9 °F /  9.4 °C 29.7 in /  1006.0 hPa SW 5.8 mph /  9.3 km/h 5.8 mph /  9.3 km/h 39 % 0 in /  0.0 mm
14:50 75.9 °F /  24.4 °C 49.3 °F /  9.6 °C 29.7 in /  1006.0 hPa WNW 6.9 mph /  11.1 km/h 6.9 mph /  11.1 km/h 39 % 0 in /  0.0 mm
14:55 76.1 °F /  24.5 °C 49.3 °F /  9.6 °C 29.7 in /  1006.0 hPa West 5.8 mph /  9.3 km/h 5.8 mph /  9.3 km/h 39 % 0 in /  0.0 mm
15:00 76.3 °F /  24.6 °C 48.7 °F /  9.3 °C 29.7 in /  1006.0 hPa WNW 7.8 mph /  12.6 km/h 7.8 mph /  12.6 km/h 38 % 0 in /  0.0 mm
15:05 75.7 °F /  24.3 °C 47.7 °F /  8.7 °C 29.7 in /  1006.0 hPa WSW 8.1 mph /  13.0 km/h 8.1 mph /  13.0 km/h 37 % 0 in /  0.0 mm
15:06 75.9 °F /  24.4 °C 47.8 °F /  8.8 °C 29.7 in /  1006.0 hPa SW 4.6 mph /  7.4 km/h 4.6 mph /  7.4 km/h 37 % 0 in /  0.0 mm
15:11 75.9 °F /  24.4 °C 46.9 °F /  8.3 °C 29.7 in /  1006.0 hPa WSW 5.8 mph /  9.3 km/h 5.8 mph /  9.3 km/h 36 % 0 in /  0.0 mm
15:16 75.7 °F /  24.3 °C 46.9 °F /  8.3 °C 29.7 in /  1006.0 hPa North 8.1 mph /  13.0 km/h 8.1 mph /  13.0 km/h 36 % 0 in /  0.0 mm
15:21 75.9 °F /  24.4 °C 46.9 °F /  8.3 °C 29.7 in /  1006.0 hPa WSW 10.4 mph /  16.7 km/h 10.4 mph /  16.7 km/h 36 % 0 in /  0.0 mm
15:26 75.2 °F /  24.0 °C 47.1 °F /  8.4 °C 29.7 in /  1006.0 hPa WSW 5.8 mph /  9.3 km/h 5.8 mph /  9.3 km/h 37 % 0 in /  0.0 mm
15:31 75.2 °F /  24.0 °C 46.4 °F /  8.0 °C 29.7 in /  1006.0 hPa WSW 9.2 mph /  14.8 km/h 9.2 mph /  14.8 km/h 36 % 0 in /  0.0 mm
15:36 75.6 °F /  24.2 °C 46.8 °F /  8.2 °C 29.7 in /  1006.0 hPa WSW 6.4 mph /  10.3 km/h 6.4 mph /  10.3 km/h 36 % 0 in /  0.0 mm
15:41 76.5 °F /  24.7 °C 48.9 °F /  9.4 °C 29.7 in /  1005.0 hPa WSW 2.4 mph /  3.9 km/h 2.4 mph /  3.9 km/h 38 % 0 in /  0.0 mm
15:46 76.8 °F /  24.9 °C 47.8 °F /  8.8 °C 29.7 in /  1005.0 hPa WSW 5.8 mph /  9.3 km/h 6 mph /  9.7 km/h 36 % 0 in /  0.0 mm
15:51 77 °F /  25.0 °C 48 °F /  8.9 °C 29.7 in /  1005.0 hPa WSW 6.9 mph /  11.1 km/h 6.9 mph /  11.1 km/h 36 % 0 in /  0.0 mm
15:56 76.5 °F /  24.7 °C 48.2 °F /  9.0 °C 29.7 in /  1006.0 hPa SW 5.8 mph /  9.3 km/h 5.8 mph /  9.3 km/h 37 % 0 in /  0.0 mm
16:01 76.6 °F /  24.8 °C 48.4 °F /  9.1 °C 29.7 in /  1006.0 hPa WSW 4.6 mph /  7.4 km/h 4.6 mph /  7.4 km/h 37 % 0 in /  0.0 mm
16:06 76.6 °F /  24.8 °C 47.7 °F /  8.7 °C 29.7 in /  1006.0 hPa NNW 5.8 mph /  9.3 km/h 5.8 mph /  9.3 km/h 36 % 0 in /  0.0 mm
16:11 77 °F /  25.0 °C 47.1 °F /  8.4 °C 29.7 in /  1006.0 hPa WSW 5.8 mph /  9.3 km/h 5.8 mph /  9.3 km/h 35 % 0 in /  0.0 mm
16:16 77.5 °F /  25.3 °C 47.7 °F /  8.7 °C 29.7 in /  1006.0 hPa WSW 4.6 mph /  7.4 km/h 4.6 mph /  7.4 km/h 35 % 0 in /  0.0 mm
16:21 77.7 °F /  25.4 °C 47.8 °F /  8.8 °C 29.7 in /  1006.0 hPa SSW 8.1 mph /  13.0 km/h 8.1 mph /  13.0 km/h 35 % 0 in /  0.0 mm
16:26 77.2 °F /  25.1 °C 46.6 °F /  8.1 °C 29.7 in /  1006.0 hPa WNW 5.8 mph /  9.3 km/h 5.8 mph /  9.3 km/h 34 % 0 in /  0.0 mm
16:31 77.5 °F /  25.3 °C 46.9 °F /  8.3 °C 29.7 in /  1006.0 hPa WSW 6.2 mph /  10.0 km/h 6.2 mph /  10.0 km/h 34 % 0 in /  0.0 mm
16:33 77.4 °F /  25.2 °C 46 °F /  7.8 °C 29.7 in /  1006.0 hPa West 5.8 mph /  9.3 km/h 5.8 mph /  9.3 km/h 33 % 0 in /  0.0 mm
16:38 77.5 °F /  25.3 °C 46.9 °F /  8.3 °C 29.7 in /  1006.0 hPa SW 5.8 mph /  9.3 km/h 5.8 mph /  9.3 km/h 34 % 0 in /  0.0 mm
16:43 77.7 °F /  25.4 °C 45.5 °F /  7.5 °C 29.7 in /  1005.0 hPa SW 6.9 mph /  11.1 km/h 6.9 mph /  11.1 km/h 32 % 0 in /  0.0 mm
16:48 77.5 °F /  25.3 °C 45.3 °F /  7.4 °C 29.7 in /  1005.0 hPa South 5.8 mph /  9.3 km/h 5.8 mph /  9.3 km/h 32 % 0 in /  0.0 mm
16:53 77.7 °F /  25.4 °C 46.2 °F /  7.9 °C 29.7 in /  1005.0 hPa WNW 6.9 mph /  11.1 km/h 6.9 mph /  11.1 km/h 33 % 0 in /  0.0 mm
16:58 77 °F /  25.0 °C 45.7 °F /  7.6 °C 29.7 in /  1006.0 hPa SW 8.1 mph /  13.0 km/h 8.1 mph /  13.0 km/h 33 % 0 in /  0.0 mm
17:03 77 °F /  25.0 °C 47.1 °F /  8.4 °C 29.7 in /  1006.0 hPa WSW 8.1 mph /  13.0 km/h 8.1 mph /  13.0 km/h 35 % 0 in /  0.0 mm
17:08 76.3 °F /  24.6 °C 48.7 °F /  9.3 °C 29.7 in /  1006.0 hPa SW 15 mph /  24.1 km/h 15 mph /  24.1 km/h 38 % 0 in /  0.0 mm
17:13 74.7 °F /  23.7 °C 48 °F /  8.9 °C 29.7 in /  1006.0 hPa SW 9.2 mph /  14.8 km/h 9.2 mph /  14.8 km/h 39 % 0 in /  0.0 mm
17:18 74.8 °F /  23.8 °C 48.9 °F /  9.4 °C 29.7 in /  1006.0 hPa SW 8.1 mph /  13.0 km/h 8.1 mph /  13.0 km/h 40 % 0 in /  0.0 mm
17:23 73.6 °F /  23.1 °C 47.8 °F /  8.8 °C 29.7 in /  1006.0 hPa SSW 5.8 mph /  9.3 km/h 5.8 mph /  9.3 km/h 40 % 0 in /  0.0 mm
17:28 73.6 °F /  23.1 °C 48.4 °F /  9.1 °C 29.7 in /  1006.0 hPa WSW 15 mph /  24.1 km/h 15 mph /  24.1 km/h 41 % 0 in /  0.0 mm
17:33 73 °F /  22.8 °C 48.6 °F /  9.2 °C 29.7 in /  1006.0 hPa SSW 9.2 mph /  14.8 km/h 9.2 mph /  14.8 km/h 42 % 0 in /  0.0 mm
17:38 73 °F /  22.8 °C 48.6 °F /  9.2 °C 29.7 in /  1006.0 hPa WSW 8.1 mph /  13.0 km/h 8.1 mph /  13.0 km/h 42 % 0 in /  0.0 mm
17:43 73 °F /  22.8 °C 48.6 °F /  9.2 °C 29.7 in /  1006.0 hPa SW 10.4 mph /  16.7 km/h 10.4 mph /  16.7 km/h 42 % 0 in /  0.0 mm
17:48 72.7 °F /  22.6 °C 48.4 °F /  9.1 °C 29.7 in /  1006.0 hPa SW 13.8 mph /  22.2 km/h 13.8 mph /  22.2 km/h 42 % 0 in /  0.0 mm
17:53 73 °F /  22.8 °C 48.6 °F /  9.2 °C 29.7 in /  1006.0 hPa West 10.4 mph /  16.7 km/h 10.4 mph /  16.7 km/h 42 % 0 in /  0.0 mm
17:58 73.2 °F /  22.9 °C 48.7 °F /  9.3 °C 29.7 in /  1006.0 hPa SW 9.2 mph /  14.8 km/h 9.2 mph /  14.8 km/h 42 % 0 in /  0.0 mm
18:03 72.9 °F /  22.7 °C 48.4 °F /  9.1 °C 29.7 in /  1006.0 hPa SE 9.2 mph /  14.8 km/h 9.2 mph /  14.8 km/h 42 % 0 in /  0.0 mm
18:08 73.2 °F /  22.9 °C 48.7 °F /  9.3 °C 29.7 in /  1006.0 hPa SW 5.8 mph /  9.3 km/h 5.8 mph /  9.3 km/h 42 % 0 in /  0.0 mm
18:13 73.4 °F /  23.0 °C 48.4 °F /  9.1 °C 29.7 in /  1006.0 hPa WSW 8.1 mph /  13.0 km/h 8.1 mph /  13.0 km/h 41 % 0 in /  0.0 mm
18:18 73.4 °F /  23.0 °C 48.4 °F /  9.1 °C 29.7 in /  1006.0 hPa SW 8.1 mph /  13.0 km/h 8.1 mph /  13.0 km/h 41 % 0 in /  0.0 mm
18:23 73.2 °F /  22.9 °C 48 °F /  8.9 °C 29.7 in /  1006.0 hPa West 8.1 mph /  13.0 km/h 8.1 mph /  13.0 km/h 41 % 0 in /  0.0 mm
18:28 72.9 °F /  22.7 °C 47.8 °F /  8.8 °C 29.7 in /  1006.0 hPa SSW 10.4 mph /  16.7 km/h 10.4 mph /  16.7 km/h 41 % 0 in /  0.0 mm
18:33 73 °F /  22.8 °C 47.8 °F /  8.8 °C 29.7 in /  1006.0 hPa WSW 11.5 mph /  18.5 km/h 11.5 mph /  18.5 km/h 41 % 0 in /  0.0 mm
18:38 73.2 °F /  22.9 °C 48 °F /  8.9 °C 29.7 in /  1006.0 hPa SW 8.1 mph /  13.0 km/h 8.1 mph /  13.0 km/h 41 % 0 in /  0.0 mm
18:43 73 °F /  22.8 °C 47.3 °F /  8.5 °C 29.7 in /  1006.0 hPa West 10.5 mph /  16.9 km/h 10.5 mph /  16.9 km/h 40 % 0 in /  0.0 mm
18:48 73 °F /  22.8 °C 47.3 °F /  8.5 °C 29.7 in /  1006.0 hPa WSW 5.8 mph /  9.3 km/h 5.8 mph /  9.3 km/h 40 % 0 in /  0.0 mm
18:53 72.9 °F /  22.7 °C 47.1 °F /  8.4 °C 29.7 in /  1006.0 hPa WSW 10.4 mph /  16.7 km/h 10.4 mph /  16.7 km/h 40 % 0 in /  0.0 mm
18:58 72.5 °F /  22.5 °C 46.8 °F /  8.2 °C 29.7 in /  1007.0 hPa SW 13.8 mph /  22.2 km/h 13.8 mph /  22.2 km/h 40 % 0 in /  0.0 mm
19:03 72.5 °F /  22.5 °C 46.8 °F /  8.2 °C 29.7 in /  1007.0 hPa SSW 6.9 mph /  11.1 km/h 6.9 mph /  11.1 km/h 40 % 0 in /  0.0 mm
19:08 72.3 °F /  22.4 °C 46.6 °F /  8.1 °C 29.7 in /  1007.0 hPa SW 10.4 mph /  16.7 km/h 10.4 mph /  16.7 km/h 40 % 0 in /  0.0 mm
19:13 72.1 °F /  22.3 °C 46.6 °F /  8.1 °C 29.7 in /  1007.0 hPa SSW 11.8 mph /  19.0 km/h 11.8 mph /  19.0 km/h 40 % 0 in /  0.0 mm
19:18 72 °F /  22.2 °C 46.2 °F /  7.9 °C 29.7 in /  1007.0 hPa SSW 15 mph /  24.1 km/h 15 mph /  24.1 km/h 40 % 0 in /  0.0 mm
19:23 71.8 °F /  22.1 °C 46.2 °F /  7.9 °C 29.7 in /  1007.0 hPa SW 8.1 mph /  13.0 km/h 8.1 mph /  13.0 km/h 40 % 0 in /  0.0 mm
19:28 71.2 °F /  21.8 °C 45.7 °F /  7.6 °C 29.7 in /  1007.0 hPa SW 6.9 mph /  11.1 km/h 6.9 mph /  11.1 km/h 40 % 0 in /  0.0 mm
19:33 71.1 °F /  21.7 °C 45.5 °F /  7.5 °C 29.7 in /  1007.0 hPa WSW 8.1 mph /  13.0 km/h 8.1 mph /  13.0 km/h 40 % 0 in /  0.0 mm
19:38 70.7 °F /  21.5 °C 45.1 °F /  7.3 °C 29.7 in /  1007.0 hPa WSW 12.7 mph /  20.4 km/h 12.7 mph /  20.4 km/h 40 % 0 in /  0.0 mm
19:43 70.2 °F /  21.2 °C 44.8 °F /  7.1 °C 29.7 in /  1007.0 hPa SW 9.2 mph /  14.8 km/h 9.2 mph /  14.8 km/h 40 % 0 in /  0.0 mm
19:48 69.6 °F /  20.9 °C 45 °F /  7.2 °C 29.7 in /  1007.0 hPa SW 6.9 mph /  11.1 km/h 6.9 mph /  11.1 km/h 41 % 0 in /  0.0 mm
19:53 69.4 °F /  20.8 °C 44.8 °F /  7.1 °C 29.7 in /  1007.0 hPa SSW 10.4 mph /  16.7 km/h 10.4 mph /  16.7 km/h 41 % 0 in /  0.0 mm
19:58 69.1 °F /  20.6 °C 44.4 °F /  6.9 °C 29.7 in /  1007.0 hPa WSW 6.9 mph /  11.1 km/h 6.9 mph /  11.1 km/h 41 % 0 in /  0.0 mm
20:03 68.9 °F /  20.5 °C 43.5 °F /  6.4 °C 29.7 in /  1007.0 hPa WSW 5.8 mph /  9.3 km/h 5.8 mph /  9.3 km/h 40 % 0 in /  0.0 mm
20:08 68.7 °F /  20.4 °C 44.1 °F /  6.7 °C 29.7 in /  1007.0 hPa West 6.9 mph /  11.1 km/h 6.9 mph /  11.1 km/h 41 % 0 in /  0.0 mm
20:13 68.7 °F /  20.4 °C 44.1 °F /  6.7 °C 29.8 in /  1008.0 hPa SW 8.1 mph /  13.0 km/h 8.1 mph /  13.0 km/h 41 % 0 in /  0.0 mm
20:18 68.7 °F /  20.4 °C 44.8 °F /  7.1 °C 29.8 in /  1008.0 hPa South 9.2 mph /  14.8 km/h 9.2 mph /  14.8 km/h 42 % 0 in /  0.0 mm
20:23 68.5 °F /  20.3 °C 45.1 °F /  7.3 °C 29.8 in /  1008.0 hPa SW 6.9 mph /  11.1 km/h 6.9 mph /  11.1 km/h 43 % 0 in /  0.0 mm
20:28 68.4 °F /  20.2 °C 45.7 °F /  7.6 °C 29.8 in /  1009.0 hPa SSW 6.9 mph /  11.1 km/h 6.9 mph /  11.1 km/h 44 % 0 in /  0.0 mm
20:33 68 °F /  20.0 °C 45.9 °F /  7.7 °C 29.8 in /  1009.0 hPa SW 6.9 mph /  11.1 km/h 6.9 mph /  11.1 km/h 45 % 0 in /  0.0 mm
20:38 67.6 °F /  19.8 °C 46.8 °F /  8.2 °C 29.8 in /  1009.0 hPa SW 5.9 mph /  9.5 km/h 5.9 mph /  9.5 km/h 47 % 0 in /  0.0 mm
20:43 67.3 °F /  19.6 °C 46.9 °F /  8.3 °C 29.8 in /  1008.0 hPa WSW 7.4 mph /  11.9 km/h 7.4 mph /  11.9 km/h 48 % 0 in /  0.0 mm
20:48 67.1 °F /  19.5 °C 47.3 °F /  8.5 °C 29.8 in /  1008.0 hPa SW 5.8 mph /  9.3 km/h 5.8 mph /  9.3 km/h 49 % 0 in /  0.0 mm
20:53 66.7 °F /  19.3 °C 47.5 °F /  8.6 °C 29.8 in /  1008.0 hPa West 8.1 mph /  13.0 km/h 8.1 mph /  13.0 km/h 50 % 0 in /  0.0 mm
20:58 66.4 °F /  19.1 °C 47.7 °F /  8.7 °C 29.8 in /  1008.0 hPa WSW 8.1 mph /  13.0 km/h 8.1 mph /  13.0 km/h 51 % 0 in /  0.0 mm
21:03 66.2 °F /  19.0 °C 48 °F /  8.9 °C 29.8 in /  1008.0 hPa SSW 5.8 mph /  9.3 km/h 5.8 mph /  9.3 km/h 52 % 0 in /  0.0 mm
21:08 65.8 °F /  18.8 °C 48.7 °F /  9.3 °C 29.8 in /  1008.0 hPa WSW 5.8 mph /  9.3 km/h 5.8 mph /  9.3 km/h 54 % 0 in /  0.0 mm
21:13 65.7 °F /  18.7 °C 48.6 °F /  9.2 °C 29.8 in /  1009.0 hPa WSW 5.8 mph /  9.3 km/h 5.8 mph /  9.3 km/h 54 % 0 in /  0.0 mm
21:18 65.3 °F /  18.5 °C 48.7 °F /  9.3 °C 29.8 in /  1009.0 hPa WSW 6.2 mph /  10.0 km/h 6.2 mph /  10.0 km/h 55 % 0 in /  0.0 mm
21:23 65.1 °F /  18.4 °C 48.9 °F /  9.4 °C 29.8 in /  1009.0 hPa WSW 5.9 mph /  9.5 km/h 5.9 mph /  9.5 km/h 56 % 0 in /  0.0 mm
21:28 64.9 °F /  18.3 °C 48.9 °F /  9.4 °C 29.8 in /  1009.0 hPa WSW 5.8 mph /  9.3 km/h 5.8 mph /  9.3 km/h 56 % 0 in /  0.0 mm
21:33 64.8 °F /  18.2 °C 49.3 °F /  9.6 °C 29.8 in /  1009.0 hPa SSW 3.5 mph /  5.6 km/h 3.5 mph /  5.6 km/h 57 % 0 in /  0.0 mm
21:38 64.4 °F /  18.0 °C 49.3 °F /  9.6 °C 29.8 in /  1009.0 hPa SW 3.5 mph /  5.6 km/h 3.5 mph /  5.6 km/h 58 % 0 in /  0.0 mm
21:43 64.2 °F /  17.9 °C 49.1 °F /  9.5 °C 29.8 in /  1010.0 hPa WSW 2.3 mph /  3.7 km/h 2.4 mph /  3.9 km/h 58 % 0 in /  0.0 mm
21:48 64 °F /  17.8 °C 48.9 °F /  9.4 °C 29.8 in /  1010.0 hPa SSW 3.5 mph /  5.6 km/h 3.5 mph /  5.6 km/h 58 % 0 in /  0.0 mm
21:53 63.9 °F /  17.7 °C 49.3 °F /  9.6 °C 29.8 in /  1010.0 hPa WSW 3.5 mph /  5.6 km/h 3.5 mph /  5.6 km/h 59 % 0 in /  0.0 mm
21:58 63.7 °F /  17.6 °C 49.1 °F /  9.5 °C 29.8 in /  1010.0 hPa SSW 3.5 mph /  5.6 km/h 3.5 mph /  5.6 km/h 59 % 0 in /  0.0 mm
22:03 63.3 °F /  17.4 °C 48.7 °F /  9.3 °C 29.8 in /  1010.0 hPa WSW 4.6 mph /  7.4 km/h 4.6 mph /  7.4 km/h 59 % 0 in /  0.0 mm
22:08 63.1 °F /  17.3 °C 48.9 °F /  9.4 °C 29.8 in /  1010.0 hPa SW 3.5 mph /  5.6 km/h 3.5 mph /  5.6 km/h 60 % 0 in /  0.0 mm
22:13 63 °F /  17.2 °C 48.9 °F /  9.4 °C 29.8 in /  1010.0 hPa SW 4.6 mph /  7.4 km/h 4.6 mph /  7.4 km/h 60 % 0 in /  0.0 mm
22:18 62.8 °F /  17.1 °C 49.1 °F /  9.5 °C 29.8 in /  1010.0 hPa WSW 3.5 mph /  5.6 km/h 3.6 mph /  5.8 km/h 61 % 0 in /  0.0 mm
22:23 62.6 °F /  17.0 °C 48.9 °F /  9.4 °C 29.8 in /  1010.0 hPa WSW 2.4 mph /  3.9 km/h 2.4 mph /  3.9 km/h 61 % 0 in /  0.0 mm
22:25 58.3 °F /  14.6 °C 48.2 °F /  9.0 °C 29.8 in /  1010.7 hPa Calm     69 % 0 in /  0.0 mm
22:28 62.6 °F /  17.0 °C 48.9 °F /  9.4 °C 29.8 in /  1010.0 hPa West 3.5 mph /  5.6 km/h 3.5 mph /  5.6 km/h 61 % 0 in /  0.0 mm
22:33 62.6 °F /  17.0 °C 48.9 °F /  9.4 °C 29.8 in /  1010.0 hPa WNW 1.4 mph /  2.3 km/h 1.4 mph /  2.3 km/h 61 % 0 in /  0.0 mm
22:35 57.9 °F /  14.4 °C 47.8 °F /  8.8 °C 29.8 in /  1010.7 hPa SW 1 mph /  1.6 km/h 2 mph /  3.2 km/h 69 % 0 in /  0.0 mm
22:39 62.8 °F /  17.1 °C 49.1 °F /  9.5 °C 29.8 in /  1010.0 hPa West 3.5 mph /  5.6 km/h 3.5 mph /  5.6 km/h 61 % 0 in /  0.0 mm
22:44 62.6 °F /  17.0 °C 49.5 °F /  9.7 °C 29.8 in /  1010.0 hPa WSW 2.3 mph /  3.7 km/h 2.3 mph /  3.7 km/h 62 % 0 in /  0.0 mm
22:45 57.9 °F /  14.4 °C 47.8 °F /  8.8 °C 29.8 in /  1010.7 hPa Calm   1 mph /  1.6 km/h 69 % 0 in /  0.0 mm
22:49 62.6 °F /  17.0 °C 49.5 °F /  9.7 °C 29.8 in /  1010.0 hPa SW 1.2 mph /  1.9 km/h   62 % 0 in /  0.0 mm
22:54 62.6 °F /  17.0 °C 49.5 °F /  9.7 °C 29.8 in /  1010.0 hPa West 1.2 mph /  1.9 km/h 1.2 mph /  1.9 km/h 62 % 0 in /  0.0 mm
22:55 57.2 °F /  14.0 °C 47.1 °F /  8.4 °C 29.8 in /  1010.7 hPa West 1 mph /  1.6 km/h 2 mph /  3.2 km/h 69 % 0 in /  0.0 mm
22:59 62.6 °F /  17.0 °C 49.5 °F /  9.7 °C 29.8 in /  1010.0 hPa WSW 1.2 mph /  1.9 km/h   62 % 0 in /  0.0 mm
23:04 62.4 °F /  16.9 °C 49.6 °F /  9.8 °C 29.8 in /  1010.0 hPa SW 2.3 mph /  3.7 km/h 2.3 mph /  3.7 km/h 63 % 0 in /  0.0 mm
23:05 57 °F /  13.9 °C 46.9 °F /  8.3 °C 29.8 in /  1010.7 hPa WSW 1 mph /  1.6 km/h 3 mph /  4.8 km/h 69 % 0 in /  0.0 mm
23:09 62.2 °F /  16.8 °C 49.8 °F /  9.9 °C 29.8 in /  1010.0 hPa NW 2.3 mph /  3.7 km/h   64 % 0 in /  0.0 mm
23:14 62.2 °F /  16.8 °C 49.8 °F /  9.9 °C 29.8 in /  1010.0 hPa WSW 2.6 mph /  4.2 km/h 2.6 mph /  4.2 km/h 64 % 0 in /  0.0 mm
23:15 57.2 °F /  14.0 °C 47.5 °F /  8.6 °C 29.8 in /  1010.7 hPa WSW 1 mph /  1.6 km/h 3 mph /  4.8 km/h 70 % 0 in /  0.0 mm
23:19 62.1 °F /  16.7 °C 49.6 °F /  9.8 °C 29.8 in /  1010.0 hPa SSW 2.3 mph /  3.7 km/h 2.3 mph /  3.7 km/h 64 % 0 in /  0.0 mm
23:24 61.9 °F /  16.6 °C 49.6 °F /  9.8 °C 29.8 in /  1010.0 hPa SW 2.3 mph /  3.7 km/h 2.3 mph /  3.7 km/h 64 % 0 in /  0.0 mm
23:25 57.6 °F /  14.2 °C 47.5 °F /  8.6 °C 29.8 in /  1010.7 hPa West 2 mph /  3.2 km/h 2 mph /  3.2 km/h 69 % 0 in /  0.0 mm
23:29 61.3 °F /  16.3 °C 49.1 °F /  9.5 °C 29.8 in /  1010.0 hPa SW 2.4 mph /  3.9 km/h 2.4 mph /  3.9 km/h 64 % 0 in /  0.0 mm
23:34 60.8 °F /  16.0 °C 48.9 °F /  9.4 °C 29.8 in /  1010.0 hPa SW 2.4 mph /  3.9 km/h 2.4 mph /  3.9 km/h 65 % 0 in /  0.0 mm
23:35 57.2 °F /  14.0 °C 47.5 °F /  8.6 °C 29.8 in /  1010.7 hPa WNW 1 mph /  1.6 km/h 2 mph /  3.2 km/h 70 % 0 in /  0.0 mm
23:39 60.8 °F /  16.0 °C 48.9 °F /  9.4 °C 29.8 in /  1010.0 hPa WSW 2.3 mph /  3.7 km/h 2.3 mph /  3.7 km/h 65 % 0 in /  0.0 mm
23:44 60.8 °F /  16.0 °C 48.9 °F /  9.4 °C 29.8 in /  1010.0 hPa SW 3.5 mph /  5.6 km/h 3.5 mph /  5.6 km/h 65 % 0 in /  0.0 mm
23:45 57.4 °F /  14.1 °C 47.7 °F /  8.7 °C 29.8 in /  1010.7 hPa Calm   2 mph /  3.2 km/h 70 % 0 in /  0.0 mm
23:49 60.8 °F /  16.0 °C 49.5 °F /  9.7 °C 29.8 in /  1010.0 hPa SW 2.4 mph /  3.9 km/h 2.4 mph /  3.9 km/h 66 % 0 in /  0.0 mm
23:54 60.8 °F /  16.0 °C 49.5 °F /  9.7 °C 29.8 in /  1010.0 hPa WSW 4 mph /  6.4 km/h 4 mph /  6.4 km/h 66 % 0 in /  0.0 mm
23:55 57.6 °F /  14.2 °C 47.8 °F /  8.8 °C 29.9 in /  1011.7 hPa Calm   2 mph /  3.2 km/h 70 % 0 in /  0.0 mm
23:59 61 °F /  16.1 °C 49.8 °F /  9.9 °C 29.8 in /  1010.7 hPa WSW 6.9 mph /  11.1 km/h 6.9 mph /  11.1 km/h 67 % 0 in /  0.0 mm
Meteo Sesrovires
Elogis d' Weather Underground - 3.5 mb

Guio original per  Jim McMurry - jmcmurry@mwt.net Adaptat per a la plantilla per  Wim van der Kuil - Leuven-Template.eu

Trobareu la nostra informacio del temps tambe a:

Weather Underground

AWEKAS